createdAt,value
2022-10-23T00:01:47.322Z,13.20
2022-10-23T00:04:22.209Z,13.20
2022-10-23T00:06:50.465Z,13.14
2022-10-23T00:09:23.290Z,13.10
2022-10-23T00:11:52.491Z,13.10
2022-10-23T00:14:24.539Z,13.08
2022-10-23T00:16:52.664Z,13.00
2022-10-23T00:19:20.235Z,13.00
2022-10-23T00:21:47.774Z,12.98
2022-10-23T00:24:15.367Z,13.00
2022-10-23T00:26:42.983Z,13.00
2022-10-23T00:29:11.772Z,12.98
2022-10-23T00:31:39.852Z,12.92
2022-10-23T00:34:08.602Z,12.90
2022-10-23T00:36:38.003Z,12.90
2022-10-23T00:39:06.578Z,12.88
2022-10-23T00:41:34.974Z,12.82
2022-10-23T00:44:17.712Z,12.80
2022-10-23T00:46:46.327Z,12.80
2022-10-23T00:49:14.694Z,12.70
2022-10-23T00:51:48.720Z,12.70
2022-10-23T00:54:24.398Z,12.70
2022-10-23T00:56:58.081Z,12.70
2022-10-23T00:59:27.052Z,12.70
2022-10-23T01:01:55.343Z,12.70
2022-10-23T01:04:24.394Z,12.76
2022-10-23T01:07:19.688Z,12.70
2022-10-23T01:10:07.542Z,12.70
2022-10-23T01:12:46.774Z,12.70
2022-10-23T01:15:28.912Z,12.70
2022-10-23T01:18:05.403Z,12.70
2022-10-23T01:20:46.908Z,12.70
2022-10-23T01:23:53.280Z,12.70
2022-10-23T01:26:38.503Z,12.70
2022-10-23T01:29:36.760Z,12.60
2022-10-23T01:32:12.552Z,12.60
2022-10-23T01:34:50.633Z,12.60
2022-10-23T01:37:35.389Z,12.60
2022-10-23T01:40:08.912Z,12.60
2022-10-23T01:42:46.281Z,12.52
2022-10-23T01:45:25.388Z,12.50
2022-10-23T01:47:56.036Z,12.50
2022-10-23T01:50:26.537Z,12.50
2022-10-23T01:52:54.409Z,12.40
2022-10-23T01:55:24.617Z,12.40
2022-10-23T01:57:54.620Z,12.40
2022-10-23T02:00:22.889Z,12.30
2022-10-23T02:02:54.406Z,12.30
2022-10-23T02:05:27.328Z,12.30
2022-10-23T02:07:55.900Z,12.28
2022-10-23T02:10:53.926Z,12.20
2022-10-23T02:13:56.683Z,12.20
2022-10-23T02:16:47.654Z,12.10
2022-10-23T02:19:31.272Z,12.10
2022-10-23T02:22:21.087Z,12.00
2022-10-23T02:25:14.104Z,12.00
2022-10-23T02:27:52.145Z,11.90
2022-10-23T02:30:21.176Z,11.90
2022-10-23T02:32:54.610Z,11.90
2022-10-23T02:35:26.311Z,11.90
2022-10-23T02:38:00.859Z,11.80
2022-10-23T02:40:41.173Z,11.80
2022-10-23T02:43:27.475Z,11.80
2022-10-23T02:46:29.039Z,11.80
2022-10-23T02:49:05.382Z,11.70
2022-10-23T02:52:10.584Z,11.70
2022-10-23T02:54:56.325Z,11.70
2022-10-23T02:57:32.733Z,11.70
2022-10-23T03:00:07.678Z,11.70
2022-10-23T03:02:52.843Z,11.70
2022-10-23T03:05:26.759Z,11.70
2022-10-23T03:07:54.593Z,11.70
2022-10-23T03:10:22.891Z,11.70
2022-10-23T03:12:50.895Z,11.70
2022-10-23T03:15:19.307Z,11.70
2022-10-23T03:17:46.832Z,11.70
2022-10-23T03:20:14.470Z,11.70
2022-10-23T03:22:42.314Z,11.70
2022-10-23T03:25:10.525Z,11.70
2022-10-23T03:27:38.119Z,11.70
2022-10-23T03:30:07.873Z,11.70
2022-10-23T03:32:35.413Z,11.70
2022-10-23T03:35:04.042Z,11.70
2022-10-23T03:37:31.639Z,11.60
2022-10-23T03:39:59.177Z,11.60
2022-10-23T03:42:26.742Z,11.60
2022-10-23T03:44:54.304Z,11.60
2022-10-23T03:47:21.896Z,11.64
2022-10-23T03:49:49.406Z,11.70
2022-10-23T03:52:17.061Z,11.70
2022-10-23T03:54:44.684Z,11.70
2022-10-23T03:57:12.538Z,11.70
2022-10-23T03:59:40.072Z,11.70
2022-10-23T04:02:07.712Z,11.70
2022-10-23T04:04:35.553Z,11.70
2022-10-23T04:07:03.121Z,11.60
2022-10-23T04:09:30.717Z,11.64
2022-10-23T04:11:58.262Z,11.70
2022-10-23T04:14:26.624Z,11.70
2022-10-23T04:16:54.268Z,11.70
2022-10-23T04:19:21.775Z,11.70
2022-10-23T04:21:49.348Z,11.70
2022-10-23T04:24:17.000Z,11.70
2022-10-23T04:26:44.561Z,11.70
2022-10-23T04:29:12.157Z,11.70
2022-10-23T04:31:39.791Z,11.76
2022-10-23T04:34:07.462Z,11.80
2022-10-23T04:36:35.621Z,11.80
2022-10-23T04:39:03.487Z,11.80
2022-10-23T04:41:31.121Z,11.90
2022-10-23T04:43:58.776Z,11.90
2022-10-23T04:46:26.394Z,11.90
2022-10-23T04:48:53.934Z,11.90
2022-10-23T04:51:21.635Z,11.90
2022-10-23T04:53:49.353Z,11.92
2022-10-23T04:56:17.135Z,11.98
2022-10-23T04:58:45.557Z,12.00
2022-10-23T05:01:15.407Z,12.00
2022-10-23T05:03:44.099Z,12.00
2022-10-23T05:06:11.661Z,12.00
2022-10-23T05:08:39.226Z,12.00
2022-10-23T05:11:06.789Z,12.00
2022-10-23T05:13:35.347Z,12.00
2022-10-23T05:16:02.970Z,12.00
2022-10-23T05:18:40.748Z,12.00
2022-10-23T05:21:28.259Z,12.00
2022-10-23T05:23:55.961Z,12.00
2022-10-23T05:26:23.658Z,12.08
2022-10-23T05:28:51.327Z,12.10
2022-10-23T05:31:21.183Z,12.10
2022-10-23T05:33:49.217Z,12.10
2022-10-23T05:36:17.051Z,12.10
2022-10-23T05:38:45.865Z,12.10
2022-10-23T05:41:13.482Z,12.10
2022-10-23T05:43:41.017Z,12.10
2022-10-23T05:46:09.665Z,12.10
2022-10-23T05:48:37.650Z,12.10
2022-10-23T05:51:11.699Z,12.10
2022-10-23T05:53:41.791Z,12.10
2022-10-23T05:56:10.146Z,12.10
2022-10-23T05:58:38.533Z,12.14
2022-10-23T06:01:12.610Z,12.20
2022-10-23T06:03:40.716Z,12.20
2022-10-23T06:06:08.358Z,12.20
2022-10-23T06:08:36.046Z,12.20
2022-10-23T06:11:10.702Z,12.20
2022-10-23T06:13:38.959Z,12.20
2022-10-23T06:16:16.917Z,12.20
2022-10-23T06:18:48.630Z,12.20
2022-10-23T06:21:17.441Z,12.20
2022-10-23T06:23:46.857Z,12.20
2022-10-23T06:26:17.683Z,12.20
2022-10-23T06:28:45.867Z,12.20
2022-10-23T06:31:19.173Z,12.20
2022-10-23T06:33:46.837Z,12.20
2022-10-23T06:36:14.312Z,12.20
2022-10-23T06:38:42.025Z,12.20
2022-10-23T06:41:22.557Z,12.20
2022-10-23T06:43:51.713Z,12.20
2022-10-23T06:46:20.011Z,12.20
2022-10-23T06:48:47.681Z,12.20
2022-10-23T06:51:18.067Z,12.10
2022-10-23T06:53:45.932Z,12.10
2022-10-23T06:56:13.523Z,12.10
2022-10-23T06:58:41.749Z,12.10
2022-10-23T07:01:13.583Z,12.10
2022-10-23T07:03:41.306Z,12.10
2022-10-23T07:06:10.775Z,12.20
2022-10-23T07:08:39.212Z,12.20
2022-10-23T07:11:10.431Z,12.26
2022-10-23T07:13:39.712Z,12.40
2022-10-23T07:16:20.411Z,12.40
2022-10-23T07:18:53.426Z,12.40
2022-10-23T07:21:21.073Z,12.40
2022-10-23T07:23:48.696Z,12.40
2022-10-23T07:26:17.011Z,12.42
2022-10-23T07:28:48.308Z,12.40
2022-10-23T07:31:16.450Z,12.48
2022-10-23T07:33:44.063Z,12.50
2022-10-23T07:36:12.174Z,12.50
2022-10-23T07:38:39.860Z,12.60
2022-10-23T07:41:10.172Z,12.60
2022-10-23T07:43:40.201Z,12.60
2022-10-23T07:46:09.925Z,12.60
2022-10-23T07:48:39.203Z,12.60
2022-10-23T07:51:14.652Z,12.60
2022-10-23T07:53:43.635Z,12.60
2022-10-23T07:56:17.324Z,12.60
2022-10-23T07:58:45.057Z,12.68
2022-10-23T08:01:20.386Z,12.70
2022-10-23T08:03:48.520Z,12.78
2022-10-23T08:06:16.597Z,12.80
2022-10-23T08:11:15.394Z,12.90
2022-10-23T08:13:44.289Z,12.90
2022-10-23T08:16:11.989Z,12.98
2022-10-23T08:18:41.394Z,13.00
2022-10-23T08:21:10.205Z,13.10
2022-10-23T08:23:38.787Z,13.20
2022-10-23T08:26:08.118Z,13.28
2022-10-23T08:28:36.430Z,13.30
2022-10-23T08:31:22.673Z,13.30
2022-10-23T08:33:50.811Z,13.40
2022-10-23T08:36:22.322Z,13.50
2022-10-23T08:38:53.728Z,13.56
2022-10-23T08:41:35.154Z,13.60
2022-10-23T08:44:19.490Z,13.70
2022-10-23T08:47:08.274Z,13.80
2022-10-23T08:49:49.401Z,13.80
2022-10-23T08:52:52.576Z,13.82
2022-10-23T08:55:35.159Z,13.90
2022-10-23T08:58:16.701Z,13.90
2022-10-23T09:00:46.993Z,13.90
2022-10-23T09:03:14.694Z,13.90
2022-10-23T09:06:15.389Z,13.90
2022-10-23T09:08:59.428Z,14.00
2022-10-23T09:11:36.157Z,14.00
2022-10-23T09:14:30.424Z,14.10
2022-10-23T09:17:05.871Z,14.20
2022-10-23T09:19:33.662Z,14.26
2022-10-23T09:22:01.665Z,14.30
2022-10-23T09:24:33.500Z,14.30
2022-10-23T09:27:01.154Z,14.40
2022-10-23T09:29:36.039Z,14.40
2022-10-23T09:32:06.867Z,14.48
2022-10-23T09:34:35.432Z,14.50
2022-10-23T09:37:22.353Z,14.60
2022-10-23T09:40:02.108Z,14.70
2022-10-23T09:42:29.797Z,14.70
2022-10-23T09:44:57.757Z,14.80
2022-10-23T09:47:26.035Z,14.80
2022-10-23T09:49:57.290Z,14.86
2022-10-23T09:52:35.701Z,14.90
2022-10-23T09:55:21.199Z,15.00
2022-10-23T09:57:50.144Z,15.00
2022-10-23T10:00:23.076Z,15.00
2022-10-23T10:03:06.669Z,15.10
2022-10-23T10:05:41.945Z,15.10
2022-10-23T10:08:21.737Z,15.20
2022-10-23T10:11:25.389Z,15.10
2022-10-23T10:14:23.877Z,15.14
2022-10-23T10:17:20.667Z,15.12
2022-10-23T10:20:28.545Z,15.20
2022-10-23T10:23:41.571Z,15.20
2022-10-23T10:26:42.422Z,15.16
2022-10-23T10:30:00.052Z,15.00
2022-10-23T10:32:38.916Z,14.90
2022-10-23T10:35:24.771Z,14.80
2022-10-23T10:38:22.269Z,14.80
2022-10-23T10:41:20.269Z,14.80
2022-10-23T10:44:25.024Z,14.80
2022-10-23T10:46:59.779Z,14.70
2022-10-23T10:49:55.674Z,14.70
2022-10-23T10:52:35.884Z,14.76
2022-10-23T10:55:41.659Z,14.70
2022-10-23T10:58:36.446Z,14.60
2022-10-23T11:01:17.405Z,14.60
2022-10-23T11:03:57.397Z,14.60
2022-10-23T11:06:31.969Z,14.70
2022-10-23T11:09:20.281Z,14.80
2022-10-23T11:11:49.242Z,14.80
2022-10-23T11:14:21.086Z,14.90
2022-10-23T11:16:57.576Z,14.90
2022-10-23T11:19:34.195Z,15.00
2022-10-23T11:22:16.678Z,15.10
2022-10-23T11:25:18.719Z,15.10
2022-10-23T11:28:10.538Z,15.20
2022-10-23T11:31:00.523Z,15.20
2022-10-23T11:33:33.769Z,15.20
2022-10-23T11:36:38.463Z,15.20
2022-10-23T11:39:22.096Z,15.30
2022-10-23T11:42:04.955Z,15.20
2022-10-23T11:44:50.728Z,15.12
2022-10-23T11:47:42.849Z,15.10
2022-10-23T11:50:10.456Z,15.10
2022-10-23T11:53:15.640Z,15.10
2022-10-23T11:56:25.625Z,15.10
2022-10-23T11:58:57.156Z,15.20
2022-10-23T12:01:30.565Z,15.20
2022-10-23T12:04:14.205Z,15.20
2022-10-23T12:06:49.711Z,15.20
2022-10-23T12:09:36.211Z,15.20
2022-10-23T12:12:09.986Z,15.20
2022-10-23T12:14:50.950Z,15.24
2022-10-23T12:17:35.970Z,15.30
2022-10-23T12:20:25.729Z,15.38
2022-10-23T12:23:15.846Z,15.50
2022-10-23T12:26:13.421Z,15.58
2022-10-23T12:29:00.103Z,15.60
2022-10-23T12:31:58.442Z,15.66
2022-10-23T12:34:48.058Z,15.70
2022-10-23T12:37:37.739Z,15.80
2022-10-23T12:40:10.154Z,15.80
2022-10-23T12:42:38.802Z,15.80
2022-10-23T12:45:20.003Z,15.80
2022-10-23T12:47:50.496Z,15.80
2022-10-23T12:50:26.621Z,15.80
2022-10-23T12:53:03.240Z,15.80
2022-10-23T12:58:35.301Z,15.80
2022-10-23T13:01:06.964Z,15.80
2022-10-23T13:03:35.972Z,15.80
2022-10-23T13:06:05.575Z,15.80
2022-10-23T13:08:41.221Z,15.90
2022-10-23T13:11:16.970Z,15.90
2022-10-23T13:13:44.888Z,15.84
2022-10-23T13:16:24.005Z,15.80
2022-10-23T13:18:52.182Z,15.80
2022-10-23T13:21:28.484Z,15.80
2022-10-23T13:23:56.912Z,15.80
2022-10-23T13:26:45.077Z,15.80
2022-10-23T13:29:28.616Z,15.80
2022-10-23T13:31:57.389Z,15.80
2022-10-23T13:34:30.858Z,15.80
2022-10-23T13:37:26.816Z,15.80
2022-10-23T13:40:03.083Z,15.82
2022-10-23T13:42:31.034Z,15.86
2022-10-23T13:44:58.742Z,15.88
2022-10-23T13:47:26.413Z,15.90
2022-10-23T13:49:54.030Z,15.90
2022-10-23T13:52:23.827Z,15.90
2022-10-23T13:54:51.432Z,15.90
2022-10-23T13:57:19.108Z,15.90
2022-10-23T13:59:46.789Z,15.90
2022-10-23T14:02:21.913Z,15.90
2022-10-23T14:04:51.159Z,15.90
2022-10-23T14:07:19.004Z,15.90
2022-10-23T14:09:46.643Z,15.90
2022-10-23T14:12:14.247Z,15.90
2022-10-23T14:14:41.798Z,15.90
2022-10-23T14:17:09.706Z,15.86
2022-10-23T14:22:09.996Z,15.80
2022-10-23T14:24:38.135Z,15.80
2022-10-23T14:27:05.817Z,15.80
2022-10-23T14:29:33.480Z,15.80
2022-10-23T14:32:01.173Z,15.80
2022-10-23T14:34:28.865Z,15.80
2022-10-23T14:37:08.204Z,15.76
2022-10-23T14:39:36.805Z,15.70
2022-10-23T14:42:04.577Z,15.70
2022-10-23T14:44:32.229Z,15.70
2022-10-23T14:47:00.103Z,15.60
2022-10-23T14:49:27.724Z,15.60
2022-10-23T14:51:55.418Z,15.60
2022-10-23T14:54:23.123Z,15.60
2022-10-23T14:56:50.911Z,15.54
2022-10-23T14:59:18.600Z,15.52
2022-10-23T15:01:48.397Z,15.50
2022-10-23T15:04:16.624Z,15.50
2022-10-23T15:06:47.191Z,15.48
2022-10-23T15:09:15.727Z,15.48
2022-10-23T15:11:43.482Z,15.44
2022-10-23T15:14:11.307Z,15.40
2022-10-23T15:16:41.777Z,15.38
2022-10-23T15:19:18.681Z,15.30
2022-10-23T15:21:48.377Z,15.30
2022-10-23T15:24:17.486Z,15.20
2022-10-23T15:26:45.354Z,15.20
2022-10-23T15:29:14.919Z,15.20
2022-10-23T15:31:53.697Z,15.20
2022-10-23T15:34:26.939Z,15.20
2022-10-23T15:36:57.189Z,15.20
2022-10-23T15:39:28.635Z,15.10
2022-10-23T15:41:57.073Z,15.08
2022-10-23T15:44:28.737Z,15.00
2022-10-23T15:46:57.482Z,15.00
2022-10-23T15:49:27.334Z,14.90
2022-10-23T15:51:56.418Z,14.90
2022-10-23T15:54:26.029Z,14.90
2022-10-23T15:56:56.027Z,14.80
2022-10-23T15:59:26.134Z,14.80
2022-10-23T16:01:54.162Z,14.70
2022-10-23T16:04:22.052Z,14.70
2022-10-23T16:06:50.153Z,14.60
2022-10-23T16:09:17.804Z,14.60
2022-10-23T16:11:45.797Z,14.60
2022-10-23T16:14:16.700Z,14.50
2022-10-23T16:16:44.693Z,14.50
2022-10-23T16:19:12.876Z,14.40
2022-10-23T16:21:41.745Z,14.40
2022-10-23T16:24:09.998Z,14.30
2022-10-23T16:26:38.912Z,14.30
2022-10-23T16:29:09.342Z,14.30
2022-10-23T16:31:37.536Z,14.30
2022-10-23T16:34:06.872Z,14.22
2022-10-23T16:36:38.887Z,14.20
2022-10-23T16:39:09.425Z,14.20
2022-10-23T16:41:37.111Z,14.20
2022-10-23T16:44:05.633Z,14.20
2022-10-23T16:46:35.425Z,14.20
2022-10-23T16:49:03.367Z,14.20
2022-10-23T16:51:31.728Z,14.14
2022-10-23T16:54:00.134Z,14.10
2022-10-23T16:56:29.633Z,14.06
2022-10-23T17:01:33.635Z,14.00
2022-10-23T17:04:01.401Z,13.90
2022-10-23T17:06:32.410Z,13.90
2022-10-23T17:09:02.392Z,13.80
2022-10-23T17:11:40.148Z,13.80
2022-10-23T17:14:14.110Z,13.80
2022-10-23T17:16:51.650Z,13.70
2022-10-23T17:19:43.665Z,13.70
2022-10-23T17:22:12.638Z,13.70
2022-10-23T17:24:44.131Z,13.60
2022-10-23T17:27:13.879Z,13.60
2022-10-23T17:29:41.460Z,13.60
2022-10-23T17:32:09.156Z,13.60
2022-10-23T17:34:37.089Z,13.66
2022-10-23T17:37:05.404Z,13.60
2022-10-23T17:39:33.052Z,13.60
2022-10-23T17:42:00.676Z,13.60
2022-10-23T17:44:29.156Z,13.60
2022-10-23T17:46:56.923Z,13.60
2022-10-23T17:49:25.525Z,13.64
2022-10-23T17:51:56.631Z,13.62
2022-10-23T17:54:26.456Z,13.60
2022-10-23T17:56:55.717Z,13.60
2022-10-23T17:59:24.024Z,13.58
2022-10-23T18:01:51.744Z,13.60
2022-10-23T18:04:20.595Z,13.60
2022-10-23T18:06:52.782Z,13.60
2022-10-23T18:09:22.568Z,13.60
2022-10-23T18:11:51.669Z,13.60
2022-10-23T18:14:21.629Z,13.58
2022-10-23T18:16:51.045Z,13.54
2022-10-23T18:19:19.865Z,13.50
2022-10-23T18:21:48.861Z,13.50
2022-10-23T18:24:17.718Z,13.50
2022-10-23T18:26:47.938Z,13.40
2022-10-23T18:29:17.732Z,13.40
2022-10-23T18:31:48.330Z,13.36
2022-10-23T18:34:24.851Z,13.30
2022-10-23T18:36:54.905Z,13.30
2022-10-23T18:39:25.645Z,13.30
2022-10-23T18:41:57.693Z,13.30
2022-10-23T18:44:29.186Z,13.34
2022-10-23T18:46:59.640Z,13.30
2022-10-23T18:49:28.723Z,13.30
2022-10-23T18:51:58.299Z,13.30
2022-10-23T18:54:26.220Z,13.30
2022-10-23T18:56:53.830Z,13.30
2022-10-23T18:59:21.740Z,13.26
2022-10-23T19:01:50.601Z,13.24
2022-10-23T19:04:19.375Z,13.26
2022-10-23T19:06:49.850Z,13.20
2022-10-23T19:09:18.886Z,13.20
2022-10-23T19:11:46.948Z,13.20
2022-10-23T19:14:14.863Z,13.20
2022-10-23T19:16:59.985Z,13.20
2022-10-23T19:19:53.513Z,13.20
2022-10-23T19:22:22.793Z,13.20
2022-10-23T19:25:07.404Z,13.20
2022-10-23T19:27:35.068Z,13.18
2022-10-23T19:30:06.612Z,13.14
2022-10-23T19:32:34.912Z,13.14
2022-10-23T19:35:02.616Z,13.18
2022-10-23T19:37:30.255Z,13.10
2022-10-23T19:39:57.884Z,13.10
2022-10-23T19:42:25.575Z,13.04
2022-10-23T19:44:54.143Z,13.04
2022-10-23T19:47:21.692Z,13.00
2022-10-23T19:49:51.785Z,13.00
2022-10-23T19:52:22.201Z,12.98
2022-10-23T19:54:50.194Z,12.90
2022-10-23T19:57:33.820Z,12.90
2022-10-23T20:00:02.111Z,12.90
2022-10-23T20:02:30.224Z,12.90
2022-10-23T20:04:58.043Z,12.90
2022-10-23T20:07:25.658Z,12.90
2022-10-23T20:09:53.321Z,12.90
2022-10-23T20:12:20.979Z,12.90
2022-10-23T20:14:49.673Z,12.90
2022-10-23T20:17:17.540Z,12.90
2022-10-23T20:19:45.293Z,12.90
2022-10-23T20:22:12.980Z,12.82
2022-10-23T20:24:42.331Z,12.88
2022-10-23T20:27:10.399Z,12.90
2022-10-23T20:29:38.175Z,12.90
2022-10-23T20:32:05.783Z,12.90
2022-10-23T20:34:33.856Z,12.90
2022-10-23T20:37:01.453Z,12.90
2022-10-23T20:39:29.832Z,12.90
2022-10-23T20:41:57.501Z,12.90
2022-10-23T20:44:25.119Z,12.90
2022-10-23T20:46:53.233Z,12.90
2022-10-23T20:49:21.781Z,13.00
2022-10-23T20:51:55.708Z,12.96
2022-10-23T20:54:26.067Z,12.96
2022-10-23T20:56:53.637Z,12.90
2022-10-23T20:59:21.361Z,12.90
2022-10-23T21:01:53.060Z,12.90
2022-10-23T21:04:26.439Z,12.90
2022-10-23T21:07:12.818Z,12.90
2022-10-23T21:09:40.615Z,12.90
2022-10-23T21:12:09.268Z,12.90
2022-10-23T21:14:36.999Z,12.90
2022-10-23T21:17:05.554Z,12.90
2022-10-23T21:19:33.229Z,12.90
2022-10-23T21:22:01.197Z,12.90
2022-10-23T21:24:28.858Z,12.90
2022-10-23T21:26:56.776Z,12.90
2022-10-23T21:29:24.396Z,12.90
2022-10-23T21:31:59.714Z,12.90
2022-10-23T21:34:28.151Z,12.90
2022-10-23T21:39:44.558Z,12.90
2022-10-23T21:42:14.086Z,12.86
2022-10-23T21:44:41.803Z,12.82
2022-10-23T21:47:09.979Z,12.80
2022-10-23T21:49:37.983Z,12.80
2022-10-23T21:52:06.099Z,12.84
2022-10-23T21:54:33.683Z,12.80
2022-10-23T21:57:03.208Z,12.90
2022-10-23T21:59:33.174Z,12.82
2022-10-23T22:02:09.380Z,12.90
2022-10-23T22:04:38.028Z,12.80
2022-10-23T22:07:06.583Z,12.80
2022-10-23T22:09:34.571Z,12.80
2022-10-23T22:12:02.264Z,12.80
2022-10-23T22:14:30.450Z,12.80
2022-10-23T22:16:58.399Z,12.80
2022-10-23T22:19:26.593Z,12.80
2022-10-23T22:21:54.822Z,12.80
2022-10-23T22:24:22.860Z,12.80
2022-10-23T22:26:56.290Z,12.80
2022-10-23T22:29:27.400Z,12.80
2022-10-23T22:31:56.490Z,12.80
2022-10-23T22:34:48.299Z,12.80
2022-10-23T22:37:16.225Z,12.70
2022-10-23T22:39:43.860Z,12.70
2022-10-23T22:42:11.576Z,12.60
2022-10-23T22:44:39.092Z,12.60
2022-10-23T22:47:06.985Z,12.60
2022-10-23T22:49:34.706Z,12.60
2022-10-23T22:52:02.300Z,12.64
2022-10-23T22:54:31.566Z,12.62
2022-10-23T22:56:59.343Z,12.60
2022-10-23T22:59:27.061Z,12.60
2022-10-23T23:01:55.409Z,12.60
2022-10-23T23:04:39.196Z,12.60
2022-10-23T23:07:12.458Z,12.60
2022-10-23T23:09:44.131Z,12.60
2022-10-23T23:12:14.525Z,12.64
2022-10-23T23:14:43.287Z,12.70
2022-10-23T23:17:11.780Z,12.70
2022-10-23T23:19:39.648Z,12.64
2022-10-23T23:22:07.358Z,12.62
2022-10-23T23:24:35.036Z,12.60
2022-10-23T23:27:02.995Z,12.60
2022-10-23T23:29:31.158Z,12.60
2022-10-23T23:31:58.822Z,12.60
2022-10-23T23:34:26.684Z,12.60
2022-10-23T23:36:54.310Z,12.60
2022-10-23T23:39:22.019Z,12.60
2022-10-23T23:41:49.764Z,12.60
2022-10-23T23:44:17.283Z,12.60
2022-10-23T23:46:44.844Z,12.52
2022-10-23T23:49:12.443Z,12.50
2022-10-23T23:51:40.104Z,12.50
2022-10-23T23:54:07.744Z,12.50
2022-10-23T23:56:35.382Z,12.50
2022-10-23T23:59:03.004Z,12.50
